createdAt,value
2023-06-17T00:00:45.743Z,101246.88
2023-06-17T00:01:49.438Z,101243.72
2023-06-17T00:02:52.878Z,101245.19
2023-06-17T00:03:56.479Z,101246.22
2023-06-17T00:04:58.856Z,101248.38
2023-06-17T00:06:02.274Z,101247.19
2023-06-17T00:07:05.083Z,101241.72
2023-06-17T00:08:08.664Z,101252.00
2023-06-17T00:09:11.332Z,101245.72
2023-06-17T00:10:14.961Z,101248.94
2023-06-17T00:11:17.570Z,101248.72
2023-06-17T00:12:22.804Z,101243.16
2023-06-17T00:13:25.948Z,101244.69
2023-06-17T00:14:29.578Z,101242.56
2023-06-17T00:15:34.399Z,101244.63
2023-06-17T00:16:38.258Z,101234.59
2023-06-17T00:17:46.007Z,101243.72
2023-06-17T00:18:53.166Z,101239.66
2023-06-17T00:19:58.061Z,101227.25
2023-06-17T00:21:01.498Z,101233.81
2023-06-17T00:22:09.805Z,101230.13
2023-06-17T00:23:13.763Z,101234.47
2023-06-17T00:24:16.657Z,101232.84
2023-06-17T00:25:21.559Z,101229.66
2023-06-17T00:26:25.056Z,101228.31
2023-06-17T00:27:31.816Z,101234.59
2023-06-17T00:28:34.225Z,101231.81
2023-06-17T00:29:37.830Z,101224.00
2023-06-17T00:30:40.235Z,101229.16
2023-06-17T00:31:43.885Z,101235.84
2023-06-17T00:32:46.468Z,101231.94
2023-06-17T00:33:50.002Z,101225.38
2023-06-17T00:34:52.405Z,101226.66
2023-06-17T00:35:56.133Z,101221.56
2023-06-17T00:36:58.641Z,101221.28
2023-06-17T00:38:02.254Z,101222.22
2023-06-17T00:39:05.099Z,101222.19
2023-06-17T00:40:10.989Z,101223.25
2023-06-17T00:41:13.491Z,101222.22
2023-06-17T00:42:17.545Z,101224.59
2023-06-17T00:43:21.652Z,101225.06
2023-06-17T00:44:25.337Z,101223.50
2023-06-17T00:45:28.081Z,101215.63
2023-06-17T00:46:41.526Z,101222.84
2023-06-17T00:47:44.047Z,101219.06
2023-06-17T00:48:47.832Z,101221.84
2023-06-17T00:49:54.724Z,101215.38
2023-06-17T00:51:03.230Z,101217.75
2023-06-17T00:52:23.845Z,101213.78
2023-06-17T00:53:33.810Z,101214.22
2023-06-17T00:54:38.567Z,101216.81
2023-06-17T00:55:42.127Z,101214.03
2023-06-17T00:56:45.657Z,101209.00
2023-06-17T00:57:49.380Z,101209.00
2023-06-17T00:58:55.340Z,101214.94
2023-06-17T00:59:59.011Z,101213.53
2023-06-17T01:01:01.381Z,101210.09
2023-06-17T01:02:05.284Z,101207.75
2023-06-17T01:03:15.412Z,101207.75
2023-06-17T01:04:18.653Z,101205.16
2023-06-17T01:05:22.340Z,101203.75
2023-06-17T01:06:30.814Z,101203.56
2023-06-17T01:07:42.487Z,101208.44
2023-06-17T01:08:51.042Z,101200.66
2023-06-17T01:09:59.384Z,101205.38
2023-06-17T01:11:06.554Z,101199.75
2023-06-17T01:12:11.768Z,101192.84
2023-06-17T01:13:17.510Z,101203.50
2023-06-17T01:14:23.234Z,101200.13
2023-06-17T01:15:26.977Z,101201.13
2023-06-17T01:16:33.450Z,101190.97
2023-06-17T01:17:37.213Z,101192.06
2023-06-17T01:18:43.628Z,101191.19
2023-06-17T01:19:50.175Z,101186.56
2023-06-17T01:20:55.286Z,101184.88
2023-06-17T01:21:58.773Z,101191.59
2023-06-17T01:23:04.138Z,101188.31
2023-06-17T01:24:09.057Z,101188.91
2023-06-17T01:25:15.374Z,101179.25
2023-06-17T01:26:21.114Z,101175.72
2023-06-17T01:27:27.384Z,101184.72
2023-06-17T01:28:32.185Z,101178.06
2023-06-17T01:29:39.112Z,101177.97
2023-06-17T01:30:42.845Z,101174.84
2023-06-17T01:31:49.936Z,101183.91
2023-06-17T01:32:52.777Z,101190.03
2023-06-17T01:34:02.717Z,101182.13
2023-06-17T01:35:08.946Z,101184.69
2023-06-17T01:36:17.776Z,101186.19
2023-06-17T01:37:27.266Z,101182.56
2023-06-17T01:38:37.477Z,101193.06
2023-06-17T01:39:44.290Z,101173.19
2023-06-17T01:40:54.410Z,101183.81
2023-06-17T01:42:02.709Z,101182.56
2023-06-17T01:43:08.981Z,101178.88
2023-06-17T01:44:13.815Z,101178.41
2023-06-17T01:45:18.393Z,101179.00
2023-06-17T01:46:22.144Z,101180.19
2023-06-17T01:47:26.232Z,101171.31
2023-06-17T01:48:29.043Z,101174.16
2023-06-17T01:49:33.201Z,101177.59
2023-06-17T01:50:35.909Z,101172.75
2023-06-17T01:51:39.729Z,101175.22
2023-06-17T01:52:42.598Z,101188.84
2023-06-17T01:53:46.261Z,101180.34
2023-06-17T01:54:49.306Z,101177.84
2023-06-17T01:55:55.830Z,101177.47
2023-06-17T01:56:58.499Z,101188.22
2023-06-17T01:58:02.415Z,101187.75
2023-06-17T01:59:05.071Z,101180.16
2023-06-17T02:00:10.282Z,101187.81
2023-06-17T02:01:13.154Z,101175.03
2023-06-17T02:02:16.852Z,101181.44
2023-06-17T02:03:19.607Z,101189.31
2023-06-17T02:04:23.302Z,101185.00
2023-06-17T02:05:25.875Z,101180.88
2023-06-17T02:06:29.780Z,101184.72
2023-06-17T02:07:32.555Z,101179.00
2023-06-17T02:08:36.635Z,101180.56
2023-06-17T02:09:39.209Z,101182.13
2023-06-17T02:10:42.956Z,101178.22
2023-06-17T02:11:47.149Z,101181.44
2023-06-17T02:12:51.035Z,101181.75
2023-06-17T02:13:53.878Z,101171.13
2023-06-17T02:14:57.891Z,101180.19
2023-06-17T02:16:00.742Z,101170.31
2023-06-17T02:17:05.397Z,101167.66
2023-06-17T02:18:08.423Z,101168.47
2023-06-17T02:19:13.752Z,101168.13
2023-06-17T02:20:16.389Z,101166.59
2023-06-17T02:21:20.382Z,101161.75
2023-06-17T02:22:24.135Z,101165.41
2023-06-17T02:23:29.628Z,101169.09
2023-06-17T02:24:32.535Z,101162.44
2023-06-17T02:25:38.152Z,101166.97
2023-06-17T02:26:42.173Z,101163.13
2023-06-17T02:27:47.150Z,101163.22
2023-06-17T02:28:49.949Z,101164.19
2023-06-17T02:29:53.864Z,101161.63
2023-06-17T02:30:56.725Z,101165.47
2023-06-17T02:32:00.491Z,101163.59
2023-06-17T02:33:03.315Z,101157.22
2023-06-17T02:34:07.048Z,101163.56
2023-06-17T02:35:11.698Z,101161.91
2023-06-17T02:36:15.992Z,101157.06
2023-06-17T02:37:19.978Z,101158.16
2023-06-17T02:38:26.025Z,101165.53
2023-06-17T02:39:28.492Z,101160.69
2023-06-17T02:40:32.487Z,101160.25
2023-06-17T02:41:35.067Z,101155.91
2023-06-17T02:42:39.728Z,101164.16
2023-06-17T02:43:43.961Z,101157.25
2023-06-17T02:44:47.703Z,101160.53
2023-06-17T02:45:51.144Z,101157.41
2023-06-17T02:46:54.257Z,101165.84
2023-06-17T02:47:57.892Z,101159.72
2023-06-17T02:49:00.485Z,101166.03
2023-06-17T02:50:04.887Z,101162.28
2023-06-17T02:51:09.167Z,101160.00
2023-06-17T02:52:14.644Z,101160.59
2023-06-17T02:53:17.651Z,101168.00
2023-06-17T02:54:21.728Z,101161.41
2023-06-17T02:55:28.195Z,101164.25
2023-06-17T02:56:31.883Z,101165.84
2023-06-17T02:57:34.553Z,101167.34
2023-06-17T02:58:38.338Z,101168.88
2023-06-17T02:59:43.065Z,101159.56
2023-06-17T03:00:47.485Z,101167.72
2023-06-17T03:01:50.310Z,101165.75
2023-06-17T03:02:54.535Z,101165.34
2023-06-17T03:03:57.709Z,101167.03
2023-06-17T03:05:01.473Z,101163.19
2023-06-17T03:06:06.352Z,101169.56
2023-06-17T03:07:09.853Z,101169.78
2023-06-17T03:08:12.368Z,101165.25
2023-06-17T03:09:15.879Z,101170.34
2023-06-17T03:10:19.878Z,101172.13
2023-06-17T03:11:23.953Z,101170.66
2023-06-17T03:12:26.456Z,101168.25
2023-06-17T03:13:30.811Z,101171.22
2023-06-17T03:14:33.814Z,101169.78
2023-06-17T03:15:40.585Z,101166.19
2023-06-17T03:16:45.946Z,101173.28
2023-06-17T03:17:49.985Z,101167.16
2023-06-17T03:18:53.123Z,101167.81
2023-06-17T03:19:58.184Z,101162.34
2023-06-17T03:21:01.677Z,101167.88
2023-06-17T03:22:05.962Z,101168.69
2023-06-17T03:23:08.787Z,101166.94
2023-06-17T03:24:12.789Z,101170.31
2023-06-17T03:25:15.855Z,101165.13
2023-06-17T03:26:19.621Z,101167.66
2023-06-17T03:27:22.377Z,101164.72
2023-06-17T03:28:25.998Z,101163.47
2023-06-17T03:29:29.004Z,101159.38
2023-06-17T03:30:33.398Z,101159.41
2023-06-17T03:31:38.199Z,101162.50
2023-06-17T03:32:46.211Z,101156.16
2023-06-17T03:33:51.464Z,101157.84
2023-06-17T03:34:55.327Z,101163.94
2023-06-17T03:35:58.439Z,101172.31
2023-06-17T03:37:02.079Z,101165.50
2023-06-17T03:38:04.504Z,101167.00
2023-06-17T03:39:08.548Z,101163.94
2023-06-17T03:40:11.833Z,101165.94
2023-06-17T03:41:15.940Z,101164.84
2023-06-17T03:42:18.769Z,101162.59
2023-06-17T03:43:24.695Z,101164.16
2023-06-17T03:44:27.427Z,101162.69
2023-06-17T03:45:32.255Z,101157.78
2023-06-17T03:46:36.393Z,101158.25
2023-06-17T03:47:40.675Z,101159.03
2023-06-17T03:48:43.208Z,101160.09
2023-06-17T03:49:49.380Z,101161.41
2023-06-17T03:50:52.036Z,101164.25
2023-06-17T03:51:58.645Z,101161.69
2023-06-17T03:53:01.305Z,101163.06
2023-06-17T03:54:05.236Z,101167.41
2023-06-17T03:55:09.188Z,101170.66
2023-06-17T03:56:12.849Z,101170.94
2023-06-17T03:57:15.470Z,101163.56
2023-06-17T03:58:20.095Z,101169.38
2023-06-17T03:59:23.461Z,101167.13
2023-06-17T04:00:28.139Z,101170.25
2023-06-17T04:01:31.841Z,101165.72
2023-06-17T04:02:37.054Z,101170.34
2023-06-17T04:03:39.921Z,101174.13
2023-06-17T04:04:45.445Z,101171.44
2023-06-17T04:05:48.418Z,101172.13
2023-06-17T04:06:52.039Z,101167.03
2023-06-17T04:07:55.069Z,101167.69
2023-06-17T04:08:58.917Z,101172.69
2023-06-17T04:10:06.508Z,101171.53
2023-06-17T04:11:14.294Z,101174.00
2023-06-17T04:12:17.417Z,101176.06
2023-06-17T04:13:21.418Z,101170.00
2023-06-17T04:14:24.228Z,101173.13
2023-06-17T04:15:28.277Z,101165.34
2023-06-17T04:16:32.066Z,101169.97
2023-06-17T04:17:38.057Z,101162.16
2023-06-17T04:18:41.806Z,101176.34
2023-06-17T04:19:45.527Z,101171.84
2023-06-17T04:20:50.832Z,101177.03
2023-06-17T04:21:53.411Z,101172.81
2023-06-17T04:22:56.856Z,101172.41
2023-06-17T04:23:59.652Z,101172.91
2023-06-17T04:25:03.256Z,101167.97
2023-06-17T04:26:06.370Z,101172.91
2023-06-17T04:27:11.662Z,101171.63
2023-06-17T04:28:14.631Z,101171.84
2023-06-17T04:29:18.802Z,101181.78
2023-06-17T04:30:21.751Z,101167.00
2023-06-17T04:31:26.587Z,101170.63
2023-06-17T04:32:29.882Z,101173.56
2023-06-17T04:33:39.382Z,101175.06
2023-06-17T04:34:43.972Z,101171.84
2023-06-17T04:35:48.559Z,101177.66
2023-06-17T04:36:58.112Z,101173.91
2023-06-17T04:38:04.162Z,101169.19
2023-06-17T04:39:07.366Z,101176.78
2023-06-17T04:40:13.542Z,101179.44
2023-06-17T04:41:18.526Z,101170.38
2023-06-17T04:42:22.204Z,101173.31
2023-06-17T04:43:25.458Z,101175.97
2023-06-17T04:44:32.797Z,101175.00
2023-06-17T04:45:36.563Z,101179.22
2023-06-17T04:46:40.272Z,101174.91
2023-06-17T04:47:43.625Z,101174.50
2023-06-17T04:48:48.853Z,101175.78
2023-06-17T04:49:53.071Z,101171.53
2023-06-17T04:50:57.488Z,101172.16
2023-06-17T04:52:00.111Z,101169.75
2023-06-17T04:53:05.357Z,101176.06
2023-06-17T04:54:09.134Z,101167.00
2023-06-17T04:55:15.704Z,101167.19
2023-06-17T04:56:21.202Z,101159.72
2023-06-17T04:57:25.380Z,101170.16
2023-06-17T04:58:28.034Z,101169.38
2023-06-17T04:59:31.751Z,101172.75
2023-06-17T05:00:34.397Z,101173.22
2023-06-17T05:01:38.112Z,101174.09
2023-06-17T05:02:41.895Z,101174.56
2023-06-17T05:03:46.098Z,101176.22
2023-06-17T05:04:50.133Z,101179.16
2023-06-17T05:05:55.548Z,101172.75
2023-06-17T05:06:58.725Z,101175.28
2023-06-17T05:08:02.214Z,101169.50
2023-06-17T05:09:05.370Z,101175.81
2023-06-17T05:10:10.246Z,101172.66
2023-06-17T05:11:12.908Z,101168.00
2023-06-17T05:12:16.463Z,101172.59
2023-06-17T05:13:20.312Z,101177.31
2023-06-17T05:14:23.181Z,101176.81
2023-06-17T05:15:27.264Z,101175.97
2023-06-17T05:16:30.244Z,101178.00
2023-06-17T05:17:34.029Z,101177.81
2023-06-17T05:18:36.803Z,101183.31
2023-06-17T05:19:41.054Z,101173.66
2023-06-17T05:20:45.244Z,101175.56
2023-06-17T05:21:49.933Z,101182.75
2023-06-17T05:22:56.151Z,101178.94
2023-06-17T05:24:01.330Z,101181.50
2023-06-17T05:25:06.916Z,101180.72
2023-06-17T05:26:10.281Z,101183.59
2023-06-17T05:27:12.787Z,101184.38
2023-06-17T05:28:16.452Z,101180.91
2023-06-17T05:29:19.440Z,101185.94
2023-06-17T05:30:23.778Z,101181.50
2023-06-17T05:31:26.312Z,101189.97
2023-06-17T05:32:29.938Z,101181.47
2023-06-17T05:33:32.405Z,101192.91
2023-06-17T05:34:36.418Z,101183.66
2023-06-17T05:35:39.039Z,101186.59
2023-06-17T05:36:44.153Z,101187.72
2023-06-17T05:37:46.655Z,101191.34
2023-06-17T05:38:50.847Z,101186.31
2023-06-17T05:39:53.394Z,101186.50
2023-06-17T05:40:57.515Z,101188.84
2023-06-17T05:42:00.093Z,101179.06
2023-06-17T05:43:03.869Z,101185.66
2023-06-17T05:44:06.339Z,101189.38
2023-06-17T05:45:11.473Z,101190.06
2023-06-17T05:46:14.856Z,101190.75
2023-06-17T05:47:18.572Z,101192.88
2023-06-17T05:49:25.000Z,101196.63
2023-06-17T05:50:27.663Z,101192.91
2023-06-17T05:51:31.371Z,101191.34
2023-06-17T05:52:35.762Z,101197.94
2023-06-17T05:53:39.791Z,101191.47
2023-06-17T05:54:42.312Z,101195.59
2023-06-17T05:55:46.161Z,101194.50
2023-06-17T05:56:49.239Z,101193.66
2023-06-17T05:57:53.589Z,101194.00
2023-06-17T05:58:56.770Z,101190.72
2023-06-17T06:00:00.635Z,101183.84
2023-06-17T06:01:03.517Z,101188.06
2023-06-17T06:02:07.969Z,101187.59
2023-06-17T06:03:10.428Z,101185.41
2023-06-17T06:04:18.479Z,101186.19
2023-06-17T06:05:21.777Z,101185.41
2023-06-17T06:06:28.090Z,101187.03
2023-06-17T06:07:30.896Z,101190.47
2023-06-17T06:08:36.553Z,101191.72
2023-06-17T06:09:39.233Z,101191.81
2023-06-17T06:10:43.398Z,101197.94
2023-06-17T06:11:46.867Z,101196.88
2023-06-17T06:12:51.933Z,101191.44
2023-06-17T06:13:54.551Z,101192.38
2023-06-17T06:14:58.992Z,101192.25
2023-06-17T06:16:01.543Z,101189.75
2023-06-17T06:17:06.034Z,101195.22
2023-06-17T06:18:08.525Z,101187.38
2023-06-17T06:19:12.524Z,101180.03
2023-06-17T06:20:15.934Z,101193.34
2023-06-17T06:21:19.631Z,101194.16
2023-06-17T06:22:23.227Z,101190.84
2023-06-17T06:23:27.397Z,101189.13
2023-06-17T06:24:31.453Z,101191.94
2023-06-17T06:25:36.805Z,101196.50
2023-06-17T06:26:39.217Z,101200.44
2023-06-17T06:27:44.144Z,101203.13
2023-06-17T06:28:46.984Z,101195.66
2023-06-17T06:29:50.896Z,101206.97
2023-06-17T06:30:53.448Z,101200.47
2023-06-17T06:31:57.247Z,101202.19
2023-06-17T06:33:00.122Z,101199.81
2023-06-17T06:34:04.052Z,101201.19
2023-06-17T06:35:08.015Z,101207.13
2023-06-17T06:36:12.536Z,101205.22
2023-06-17T06:37:15.228Z,101204.28
2023-06-17T06:38:19.094Z,101210.34
2023-06-17T06:39:21.555Z,101207.56
2023-06-17T06:40:26.832Z,101210.34
2023-06-17T06:41:30.151Z,101207.69
2023-06-17T06:42:34.563Z,101213.50
2023-06-17T06:43:37.470Z,101213.00
2023-06-17T06:44:41.278Z,101214.13
2023-06-17T06:45:44.273Z,101207.56
2023-06-17T06:46:48.304Z,101217.75
2023-06-17T06:47:50.817Z,101210.59
2023-06-17T06:48:54.918Z,101215.94
2023-06-17T06:49:57.675Z,101216.13
2023-06-17T06:51:02.769Z,101224.91
2023-06-17T06:52:06.098Z,101212.75
2023-06-17T06:53:10.206Z,101210.00
2023-06-17T06:54:13.013Z,101217.31
2023-06-17T06:55:17.122Z,101214.34
2023-06-17T06:56:21.290Z,101211.75
2023-06-17T06:57:24.871Z,101212.41
2023-06-17T06:58:27.364Z,101216.81
2023-06-17T06:59:30.988Z,101220.75
2023-06-17T07:00:33.712Z,101220.13
2023-06-17T07:01:37.765Z,101220.13
2023-06-17T07:02:40.736Z,101225.78
2023-06-17T07:03:44.394Z,101219.78
2023-06-17T07:04:47.334Z,101227.78
2023-06-17T07:05:51.472Z,101216.81
2023-06-17T07:06:54.456Z,101218.25
2023-06-17T07:07:58.641Z,101222.50
2023-06-17T07:09:01.574Z,101217.16
2023-06-17T07:10:06.200Z,101215.75
2023-06-17T07:11:08.737Z,101215.94
2023-06-17T07:12:14.355Z,101214.25
2023-06-17T07:13:18.848Z,101220.53
2023-06-17T07:14:22.694Z,101226.63
2023-06-17T07:15:25.208Z,101221.34
2023-06-17T07:16:28.748Z,101222.09
2023-06-17T07:17:31.644Z,101227.94
2023-06-17T07:18:35.220Z,101231.41
2023-06-17T07:19:37.962Z,101221.84
2023-06-17T07:20:41.914Z,101228.13
2023-06-17T07:21:44.380Z,101226.25
2023-06-17T07:22:48.066Z,101222.81
2023-06-17T07:23:52.123Z,101227.22
2023-06-17T07:24:55.983Z,101228.66
2023-06-17T07:25:58.817Z,101233.03
2023-06-17T07:27:02.564Z,101231.09
2023-06-17T07:28:08.655Z,101233.63
2023-06-17T07:29:12.249Z,101232.81
2023-06-17T07:30:15.156Z,101235.81
2023-06-17T07:31:18.914Z,101228.63
2023-06-17T07:32:22.088Z,101230.00
2023-06-17T07:33:26.002Z,101228.13
2023-06-17T07:34:28.703Z,101231.44
2023-06-17T07:35:33.107Z,101238.38
2023-06-17T07:36:35.960Z,101233.03
2023-06-17T07:37:39.787Z,101232.13
2023-06-17T07:38:42.955Z,101234.44
2023-06-17T07:39:48.456Z,101236.63
2023-06-17T07:40:52.458Z,101233.28
2023-06-17T07:41:55.237Z,101229.19
2023-06-17T07:42:59.303Z,101231.91
2023-06-17T07:44:03.399Z,101234.38
2023-06-17T07:45:08.373Z,101241.44
2023-06-17T07:46:12.216Z,101234.88
2023-06-17T07:47:14.823Z,101227.63
2023-06-17T07:48:18.924Z,101234.72
2023-06-17T07:49:21.433Z,101233.31
2023-06-17T07:50:25.418Z,101226.75
2023-06-17T07:51:28.398Z,101218.78
2023-06-17T07:52:33.081Z,101223.38
2023-06-17T07:53:36.479Z,101233.41
2023-06-17T07:54:41.344Z,101227.44
2023-06-17T07:55:45.427Z,101222.41
2023-06-17T07:56:48.063Z,101227.63
2023-06-17T07:57:51.959Z,101231.31
2023-06-17T07:58:54.541Z,101229.03
2023-06-17T07:59:59.827Z,101219.16
2023-06-17T08:01:02.982Z,101219.94
2023-06-17T08:02:09.804Z,101226.53
2023-06-17T08:03:15.733Z,101222.31
2023-06-17T08:04:18.395Z,101226.38
2023-06-17T08:05:22.322Z,101222.31
2023-06-17T08:06:25.271Z,101211.47
2023-06-17T08:07:28.787Z,101220.75
2023-06-17T08:08:32.021Z,101219.47
2023-06-17T08:09:36.027Z,101212.44
2023-06-17T08:10:40.594Z,101217.00
2023-06-17T08:11:44.403Z,101210.38
2023-06-17T08:12:48.383Z,101210.88
2023-06-17T08:13:52.172Z,101211.03
2023-06-17T08:14:54.727Z,101222.63
2023-06-17T08:16:00.008Z,101213.84
2023-06-17T08:17:02.899Z,101217.28
2023-06-17T08:18:07.146Z,101212.91
2023-06-17T08:19:09.990Z,101208.84
2023-06-17T08:20:15.360Z,101211.66
2023-06-17T08:21:18.761Z,101217.78
2023-06-17T08:22:23.326Z,101211.97
2023-06-17T08:23:25.922Z,101211.66
2023-06-17T08:24:29.810Z,101216.22
2023-06-17T08:25:33.592Z,101218.91
2023-06-17T08:26:37.173Z,101216.88
2023-06-17T08:27:40.240Z,101215.44
2023-06-17T08:28:46.582Z,101219.84
2023-06-17T08:29:49.128Z,101213.22
2023-06-17T08:30:53.457Z,101219.03
2023-06-17T08:31:57.424Z,101206.00
2023-06-17T08:33:01.257Z,101206.47
2023-06-17T08:34:04.026Z,101212.75
2023-06-17T08:35:08.731Z,101209.28
2023-06-17T08:36:11.454Z,101212.13
2023-06-17T08:37:16.683Z,101204.59
2023-06-17T08:38:19.296Z,101211.31
2023-06-17T08:39:23.150Z,101205.19
2023-06-17T08:40:29.734Z,101215.69
2023-06-17T08:41:37.615Z,101210.94
2023-06-17T08:42:41.761Z,101215.34
2023-06-17T08:43:47.047Z,101217.09
2023-06-17T08:44:51.674Z,101212.84
2023-06-17T08:45:56.340Z,101220.97
2023-06-17T08:47:03.974Z,101209.69
2023-06-17T08:48:08.133Z,101207.94
2023-06-17T08:49:14.486Z,101203.09
2023-06-17T08:50:20.022Z,101202.81
2023-06-17T08:51:23.662Z,101206.56
2023-06-17T08:52:28.911Z,101210.81
2023-06-17T08:53:31.454Z,101209.91
2023-06-17T08:54:41.691Z,101211.91
2023-06-17T08:55:44.395Z,101205.47
2023-06-17T08:56:49.225Z,101203.44
2023-06-17T08:57:52.514Z,101199.31
2023-06-17T08:58:57.002Z,101208.41
2023-06-17T08:59:59.951Z,101206.19
2023-06-17T09:01:04.171Z,101201.94
2023-06-17T09:02:11.783Z,101212.50
2023-06-17T09:03:20.606Z,101204.31
2023-06-17T09:04:23.882Z,101207.59
2023-06-17T09:05:27.475Z,101203.84
2023-06-17T09:06:30.853Z,101204.22
2023-06-17T09:07:35.659Z,101203.13
2023-06-17T09:08:38.850Z,101208.47
2023-06-17T09:09:49.102Z,101201.34
2023-06-17T09:10:52.101Z,101208.09
2023-06-17T09:11:55.654Z,101206.63
2023-06-17T09:13:00.187Z,101205.25
2023-06-17T09:14:04.621Z,101208.25
2023-06-17T09:15:08.880Z,101199.78
2023-06-17T09:16:12.978Z,101207.16
2023-06-17T09:17:31.778Z,101206.19
2023-06-17T09:18:34.595Z,101210.59
2023-06-17T09:19:41.719Z,101210.25
2023-06-17T09:20:52.899Z,101210.38
2023-06-17T09:21:57.306Z,101203.09
2023-06-17T09:23:00.321Z,101207.88
2023-06-17T09:24:06.117Z,101208.31
2023-06-17T09:25:14.180Z,101209.41
2023-06-17T09:26:17.881Z,101206.56
2023-06-17T09:27:22.139Z,101214.25
2023-06-17T09:28:26.832Z,101208.84
2023-06-17T09:29:30.766Z,101222.09
2023-06-17T09:30:43.845Z,101216.38
2023-06-17T09:31:50.237Z,101218.44
2023-06-17T09:32:55.293Z,101208.66
2023-06-17T09:33:58.786Z,101208.78
2023-06-17T09:35:02.695Z,101213.06
2023-06-17T09:36:06.341Z,101217.41
2023-06-17T09:37:14.258Z,101218.31
2023-06-17T09:38:18.740Z,101213.66
2023-06-17T09:39:31.032Z,101215.88
2023-06-17T09:40:34.529Z,101209.44
2023-06-17T09:41:39.167Z,101209.72
2023-06-17T09:42:44.094Z,101212.72
2023-06-17T09:43:52.573Z,101221.25
2023-06-17T09:44:55.697Z,101206.50
2023-06-17T09:46:02.447Z,101221.94
2023-06-17T09:47:09.225Z,101210.00
2023-06-17T09:48:21.179Z,101216.78
2023-06-17T09:49:26.405Z,101214.38
2023-06-17T09:50:29.276Z,101221.47
2023-06-17T09:51:39.525Z,101212.81
2023-06-17T09:52:43.104Z,101208.38
2023-06-17T09:53:48.898Z,101214.66
2023-06-17T09:54:52.744Z,101206.06
2023-06-17T09:55:58.343Z,101209.19
2023-06-17T09:57:02.951Z,101218.59
2023-06-17T09:58:08.282Z,101208.53
2023-06-17T09:59:11.610Z,101212.22
2023-06-17T10:00:16.228Z,101214.19
2023-06-17T10:01:19.054Z,101216.47
2023-06-17T10:02:23.146Z,101216.47
2023-06-17T10:03:27.374Z,101221.13
2023-06-17T10:04:31.566Z,101208.63
2023-06-17T10:05:34.170Z,101212.31
2023-06-17T10:06:40.181Z,101213.09
2023-06-17T10:07:45.154Z,101216.66
2023-06-17T10:08:51.534Z,101217.63
2023-06-17T10:09:54.853Z,101225.50
2023-06-17T10:11:01.653Z,101219.97
2023-06-17T10:12:07.434Z,101219.84
2023-06-17T10:13:11.480Z,101220.94
2023-06-17T10:14:20.110Z,101228.84
2023-06-17T10:15:25.036Z,101221.13
2023-06-17T10:16:32.261Z,101222.63
2023-06-17T10:17:36.831Z,101224.56
2023-06-17T10:18:44.621Z,101217.81
2023-06-17T10:19:49.203Z,101227.13
2023-06-17T10:20:54.352Z,101219.72
2023-06-17T10:21:59.012Z,101227.28
2023-06-17T10:23:04.434Z,101227.13
2023-06-17T10:24:08.982Z,101229.47
2023-06-17T10:25:18.098Z,101230.91
2023-06-17T10:26:22.881Z,101232.31
2023-06-17T10:27:27.093Z,101221.22
2023-06-17T10:28:45.126Z,101221.22
2023-06-17T10:29:51.184Z,101221.50
2023-06-17T10:30:53.914Z,101216.13
2023-06-17T10:31:57.626Z,101221.47
2023-06-17T10:33:03.154Z,101212.03
2023-06-17T10:34:10.694Z,101212.38
2023-06-17T10:35:14.006Z,101218.50
2023-06-17T10:36:17.910Z,101211.09
2023-06-17T10:37:28.250Z,101208.59
2023-06-17T10:38:34.737Z,101211.59
2023-06-17T10:39:37.237Z,101210.97
2023-06-17T10:40:52.180Z,101211.75
2023-06-17T10:42:00.938Z,101206.88
2023-06-17T10:43:21.948Z,101209.09
2023-06-17T10:44:42.647Z,101212.75
2023-06-17T10:45:54.688Z,101207.09
2023-06-17T10:46:58.051Z,101204.59
2023-06-17T10:48:16.559Z,101194.19
2023-06-17T10:49:21.492Z,101204.91
2023-06-17T10:50:26.187Z,101214.94
2023-06-17T10:52:37.298Z,101205.50
2023-06-17T10:53:49.089Z,101204.22
2023-06-17T10:54:53.812Z,101195.38
2023-06-17T10:55:58.768Z,101204.63
2023-06-17T10:57:02.426Z,101194.38
2023-06-17T10:58:06.438Z,101207.19
2023-06-17T10:59:09.474Z,101204.06
2023-06-17T11:00:14.208Z,101202.22
2023-06-17T11:01:16.968Z,101208.53
2023-06-17T11:02:23.974Z,101198.88
2023-06-17T11:03:26.875Z,101209.41
2023-06-17T11:04:33.580Z,101199.75
2023-06-17T11:05:37.161Z,101199.75
2023-06-17T11:06:40.639Z,101194.06
2023-06-17T11:07:43.303Z,101200.91
2023-06-17T11:08:46.951Z,101199.72
2023-06-17T11:09:50.305Z,101194.66
2023-06-17T11:10:54.520Z,101198.00
2023-06-17T11:11:58.261Z,101190.44
2023-06-17T11:13:01.798Z,101195.50
2023-06-17T11:14:04.390Z,101194.56
2023-06-17T11:15:10.208Z,101199.66
2023-06-17T11:16:12.990Z,101197.31
2023-06-17T11:17:16.770Z,101199.34
2023-06-17T11:18:19.559Z,101195.28
2023-06-17T11:19:23.410Z,101197.69
2023-06-17T11:20:27.798Z,101203.97
2023-06-17T11:21:31.640Z,101210.75
2023-06-17T11:22:38.643Z,101202.03
2023-06-17T11:23:45.137Z,101196.63
2023-06-17T11:24:47.816Z,101194.97
2023-06-17T11:25:55.407Z,101204.81
2023-06-17T11:26:58.401Z,101194.84
2023-06-17T11:28:02.061Z,101195.63
2023-06-17T11:29:07.130Z,101192.59
2023-06-17T11:30:10.541Z,101193.13
2023-06-17T11:31:15.917Z,101201.59
2023-06-17T11:32:22.020Z,101193.38
2023-06-17T11:33:26.467Z,101199.84
2023-06-17T11:34:33.520Z,101194.66
2023-06-17T11:35:39.942Z,101190.53
2023-06-17T11:36:43.098Z,101182.69
2023-06-17T11:37:49.656Z,101188.16
2023-06-17T11:38:53.658Z,101187.53
2023-06-17T11:39:59.750Z,101188.69
2023-06-17T11:41:03.882Z,101190.50
2023-06-17T11:42:08.434Z,101178.69
2023-06-17T11:43:12.420Z,101195.25
2023-06-17T11:44:15.333Z,101194.16
2023-06-17T11:45:19.528Z,101196.91
2023-06-17T11:46:23.042Z,101192.41
2023-06-17T11:47:35.438Z,101197.97
2023-06-17T11:48:38.036Z,101186.78
2023-06-17T11:49:44.312Z,101182.16
2023-06-17T11:50:51.315Z,101185.50
2023-06-17T11:51:55.253Z,101185.09
2023-06-17T11:52:57.986Z,101178.72
2023-06-17T11:54:07.287Z,101182.22
2023-06-17T11:55:16.056Z,101181.31
2023-06-17T11:56:21.896Z,101183.25
2023-06-17T11:57:26.745Z,101183.16
2023-06-17T11:58:30.330Z,101181.56
2023-06-17T11:59:33.275Z,101182.06
2023-06-17T12:00:38.323Z,101179.75
2023-06-17T12:01:41.725Z,101181.31
2023-06-17T12:02:45.902Z,101173.59
2023-06-17T12:03:49.943Z,101185.69
2023-06-17T12:04:52.834Z,101177.78
2023-06-17T12:05:58.866Z,101181.28
2023-06-17T12:07:01.375Z,101177.94
2023-06-17T12:08:05.503Z,101176.13
2023-06-17T12:09:09.648Z,101175.75
2023-06-17T12:10:14.230Z,101177.03
2023-06-17T12:11:27.255Z,101170.38
2023-06-17T12:12:33.678Z,101165.47
2023-06-17T12:13:40.587Z,101169.41
2023-06-17T12:14:44.320Z,101175.75
2023-06-17T12:15:47.259Z,101166.03
2023-06-17T12:16:54.384Z,101160.06
2023-06-17T12:17:58.467Z,101158.56
2023-06-17T12:19:03.174Z,101159.47